Time;durP1;ratioP1;P1;durP2;ratioP2;P2;SDS_P1;SDS_P2;PMS_P1;PMS_P2;Temp;Humidity;BMP_temperature;BMP_pressure;BME280_temperature;BME280_humidity;BME280_pressure;Samples;Min_cycle;Max_cycle;Signal;HPM_P1;HPM_P2
2022/05/19 00:01:10;;;;;;;0.57;0.20;;;17.30;99.90;;;;;;5128613;27;20591;-88
2022/05/19 00:03:38;;;;;;;0.10;0.10;;;17.30;99.90;;;;;;5128414;27;20118;-87
2022/05/19 00:06:06;;;;;;;0.63;0.20;;;17.30;99.90;;;;;;5125931;27;20144;-86
2022/05/19 00:08:34;;;;;;;0.68;0.20;;;17.30;99.90;;;;;;5128950;28;20024;-86
2022/05/19 00:11:04;;;;;;;0.20;0.10;;;17.30;99.90;;;;;;5125610;27;20024;-86
2022/05/19 00:13:31;;;;;;;0.10;0.10;;;17.30;99.90;;;;;;5126467;28;20023;-86
2022/05/19 00:15:59;;;;;;;0.40;0.20;;;17.30;99.90;;;;;;5123831;28;20023;-85
2022/05/19 00:18:28;;;;;;;0.30;0.10;;;17.20;99.90;;;;;;5124894;28;20022;-86
2022/05/19 00:20:56;;;;;;;0.10;0.10;;;17.20;99.90;;;;;;5124297;28;20035;-86
2022/05/19 00:23:31;;;;;;;0.17;0.10;;;17.20;99.90;;;;;;5109572;28;20039;-86
2022/05/19 00:25:59;;;;;;;0.28;0.10;;;17.20;99.90;;;;;;5123654;28;20023;-89
2022/05/19 00:28:27;;;;;;;0.10;0.10;;;17.10;99.90;;;;;;5124512;28;20028;-90
2022/05/19 00:30:56;;;;;;;0.20;0.10;;;17.00;99.90;;;;;;5126234;28;20028;-85
2022/05/19 00:33:22;;;;;;;0.22;0.10;;;16.90;99.90;;;;;;5125990;28;20019;-88
2022/05/19 00:35:48;;;;;;;0.90;0.30;;;16.80;99.90;;;;;;5124069;28;20034;-86
2022/05/19 00:38:18;;;;;;;0.45;0.20;;;16.80;99.90;;;;;;5126648;28;20019;-86
2022/05/19 00:40:51;;;;;;;0.17;0.10;;;16.70;99.90;;;;;;5113138;28;20031;-86
2022/05/19 00:43:49;;;;;;;0.22;0.10;;;16.60;99.90;;;;;;5119451;28;20467;-92
2022/05/19 00:46:24;;;;;;;0.30;0.10;;;16.70;99.90;;;;;;5108720;28;20037;-87
2022/05/19 00:49:01;;;;;;;0.10;0.10;;;16.60;99.90;;;;;;5129170;28;20041;-86
2022/05/19 00:52:00;;;;;;;0.63;0.20;;;16.50;99.90;;;;;;5127756;27;20535;-86
2022/05/19 00:54:42;;;;;;;0.28;0.10;;;16.50;99.90;;;;;;5126141;28;20047;-86
2022/05/19 00:57:20;;;;;;;0.10;0.10;;;16.50;99.90;;;;;;5126388;28;20031;-86
2022/05/19 01:00:02;;;;;;;0.15;0.10;;;16.40;99.90;;;;;;5124723;28;20019;-86
2022/05/19 01:02:38;;;;;;;0.28;0.10;;;16.40;99.90;;;;;;5121204;28;20118;-86
2022/05/19 01:05:29;;;;;;;0.65;0.20;;;16.40;99.90;;;;;;5123680;28;20019;-86
2022/05/19 01:08:32;;;;;;;0.27;0.10;;;16.30;99.90;;;;;;5123779;28;20035;-86
2022/05/19 01:10:59;;;;;;;0.20;0.10;;;16.30;99.90;;;;;;5108599;28;20564;-87
2022/05/19 01:13:31;;;;;;;0.17;0.10;;;16.30;99.90;;;;;;5126234;27;20027;-86
2022/05/19 01:15:59;;;;;;;0.30;0.10;;;16.30;99.90;;;;;;5106288;28;20028;-86
2022/05/19 01:18:32;;;;;;;0.30;0.10;;;16.30;99.90;;;;;;5125938;28;20053;-87
2022/05/19 01:21:20;;;;;;;0.35;0.17;;;16.30;99.90;;;;;;5122369;28;20058;-87
2022/05/19 01:24:16;;;;;;;0.50;0.20;;;16.20;99.90;;;;;;5133170;27;20667;-86
2022/05/19 01:26:48;;;;;;;0.40;0.20;;;16.20;99.90;;;;;;5126750;27;20705;-86
2022/05/19 01:29:20;;;;;;;0.60;0.20;;;16.10;99.90;;;;;;5125151;27;20042;-86
2022/05/19 01:32:00;;;;;;;0.45;0.15;;;16.10;99.90;;;;;;5123683;27;20395;-87
2022/05/19 01:34:31;;;;;;;1.08;0.75;;;16.10;99.90;;;;;;5127366;27;20030;-86
2022/05/19 01:36:58;;;;;;;;;;;16.10;99.90;;;;;;5131681;27;20440;-86
2022/05/19 01:39:30;;;;;;;0.57;0.20;;;16.10;99.90;;;;;;5127322;27;19990;-86
2022/05/19 01:42:08;;;;;;;0.47;0.28;;;16.00;99.90;;;;;;5129037;27;20043;-91
2022/05/19 01:44:53;;;;;;;0.28;0.10;;;16.00;99.90;;;;;;5123056;27;20589;-87
2022/05/19 01:47:40;;;;;;;0.25;0.20;;;15.90;99.90;;;;;;5135744;27;20029;-87
2022/05/19 01:50:52;;;;;;;0.17;0.10;;;15.90;99.90;;;;;;5128356;27;20103;-86
2022/05/19 01:53:35;;;;;;;0.98;0.63;;;15.90;99.90;;;;;;5129565;27;20026;-85
2022/05/19 01:56:21;;;;;;;0.47;0.30;;;15.90;99.90;;;;;;5129682;27;20035;-87
2022/05/19 01:59:20;;;;;;;0.30;0.15;;;15.80;99.90;;;;;;5129692;27;20023;-86
2022/05/19 02:05:05;;;;;;;0.68;0.30;;;15.80;99.90;;;;;;5081421;27;20422;-64
2022/05/19 02:07:33;;;;;;;0.52;0.20;;;15.80;99.90;;;;;;5072216;28;20040;-64
2022/05/19 02:10:04;;;;;;;0.25;0.10;;;15.80;99.90;;;;;;5071084;28;20040;-64
2022/05/19 02:12:33;;;;;;;0.57;0.57;;;15.80;99.90;;;;;;5070912;28;20021;-65
2022/05/19 02:15:05;;;;;;;0.10;0.10;;;15.70;99.90;;;;;;5072367;28;20029;-64
2022/05/19 02:17:33;;;;;;;0.30;0.20;;;15.70;99.90;;;;;;5102239;28;20033;-64
2022/05/19 02:20:03;;;;;;;1.67;0.47;;;15.70;99.90;;;;;;5071845;28;20056;-65
2022/05/19 02:22:37;;;;;;;0.20;0.10;;;15.70;99.90;;;;;;5071520;28;20025;-64
2022/05/19 02:25:14;;;;;;;1.42;0.45;;;15.60;99.90;;;;;;5070270;28;20048;-64
2022/05/19 02:27:43;;;;;;;0.52;0.20;;;15.70;99.90;;;;;;5081210;28;20029;-64
2022/05/19 02:30:14;;;;;;;0.52;0.20;;;15.60;99.90;;;;;;5068961;28;20379;-64
2022/05/19 02:32:40;;;;;;;0.70;0.30;;;15.60;99.90;;;;;;5068631;28;20021;-64
2022/05/19 02:35:07;;;;;;;0.35;0.20;;;15.60;99.90;;;;;;5074456;28;20079;-64
2022/05/19 02:37:33;;;;;;;0.30;0.28;;;15.60;99.90;;;;;;5073148;28;20063;-64
2022/05/19 02:39:59;;;;;;;0.17;0.10;;;15.60;99.90;;;;;;5069940;28;20049;-64
2022/05/19 02:42:25;;;;;;;0.82;0.30;;;15.60;99.90;;;;;;5067422;28;20733;-64
2022/05/19 02:44:51;;;;;;;0.60;0.20;;;15.50;99.90;;;;;;5068282;28;20052;-64
2022/05/19 02:47:16;;;;;;;0.77;0.22;;;15.60;99.90;;;;;;5069221;28;20499;-65
2022/05/19 02:49:42;;;;;;;0.30;0.10;;;15.60;99.90;;;;;;5069780;28;20462;-64
2022/05/19 02:52:08;;;;;;;1.05;0.68;;;15.60;99.90;;;;;;5101028;28;20057;-64
2022/05/19 02:54:33;;;;;;;0.40;0.17;;;15.50;99.90;;;;;;5065143;28;20075;-65
2022/05/19 02:56:59;;;;;;;0.15;0.10;;;15.60;99.90;;;;;;5068348;28;20096;-64
2022/05/19 02:59:25;;;;;;;0.20;0.10;;;15.60;99.90;;;;;;5066906;28;20044;-64
2022/05/19 03:01:50;;;;;;;0.70;0.20;;;15.50;99.90;;;;;;5069234;28;20112;-64
2022/05/19 03:04:16;;;;;;;0.73;0.28;;;15.60;99.90;;;;;;5069535;28;20131;-65
2022/05/19 03:06:41;;;;;;;0.93;0.52;;;15.60;99.90;;;;;;5065344;28;20381;-64
2022/05/19 03:09:08;;;;;;;0.25;0.10;;;15.60;99.90;;;;;;5068997;28;20119;-64
2022/05/19 03:11:34;;;;;;;0.38;0.20;;;15.60;99.90;;;;;;5067922;28;20029;-64
2022/05/19 03:14:00;;;;;;;0.45;0.20;;;15.60;99.90;;;;;;5106570;28;20542;-64
2022/05/19 03:16:25;;;;;;;0.80;0.60;;;15.60;99.90;;;;;;5062808;28;20067;-64
2022/05/19 03:18:51;;;;;;;0.25;0.10;;;15.60;99.90;;;;;;5069090;28;20044;-64
2022/05/19 03:21:17;;;;;;;0.28;0.10;;;15.60;99.90;;;;;;5057864;28;20070;-64
2022/05/19 03:23:42;;;;;;;0.57;0.20;;;15.60;99.90;;;;;;5055206;28;20536;-65
2022/05/19 03:26:08;;;;;;;0.15;0.10;;;15.60;99.90;;;;;;5055924;28;20033;-64
2022/05/19 03:28:34;;;;;;;0.40;0.20;;;15.60;99.90;;;;;;5055692;28;20034;-65
2022/05/19 03:31:03;;;;;;;0.10;0.10;;;15.60;99.90;;;;;;5058330;28;20021;-64
2022/05/19 03:33:29;;;;;;;0.73;0.40;;;15.60;99.90;;;;;;5054719;28;20029;-64
2022/05/19 03:35:56;;;;;;;0.28;0.10;;;15.60;99.90;;;;;;5056344;28;20024;-65
2022/05/19 03:38:22;;;;;;;0.32;0.15;;;15.60;99.90;;;;;;5051322;28;20116;-64
2022/05/19 03:40:48;;;;;;;0.22;0.13;;;15.60;99.90;;;;;;5056545;28;20800;-64
2022/05/19 03:43:13;;;;;;;0.38;0.20;;;15.60;99.90;;;;;;5085885;28;20061;-64
2022/05/19 03:45:39;;;;;;;0.20;0.20;;;15.60;99.90;;;;;;5054842;28;20104;-65
2022/05/19 03:48:08;;;;;;;0.55;0.40;;;15.60;99.90;;;;;;5053903;28;21665;-65
2022/05/19 03:50:33;;;;;;;0.38;0.20;;;15.60;99.90;;;;;;5054463;28;20057;-65
2022/05/19 03:52:59;;;;;;;0.40;0.20;;;15.70;99.90;;;;;;5054063;28;20047;-64
2022/05/19 03:55:25;;;;;;;0.47;0.20;;;15.70;99.90;;;;;;5089874;28;20337;-65
2022/05/19 03:57:51;;;;;;;0.25;0.20;;;15.70;99.90;;;;;;5051108;28;20032;-65
2022/05/19 04:00:18;;;;;;;0.22;0.20;;;15.60;99.90;;;;;;5054085;28;20082;-65
2022/05/19 04:02:45;;;;;;;1.17;0.90;;;15.60;99.90;;;;;;5053262;28;20710;-65
2022/05/19 04:05:13;;;;;;;0.73;0.30;;;15.70;99.90;;;;;;5051477;28;20036;-65
2022/05/19 04:07:40;;;;;;;1.65;0.75;;;15.70;99.90;;;;;;5054060;28;20029;-65
2022/05/19 04:10:07;;;;;;;2.75;0.65;;;15.70;99.90;;;;;;5052016;28;20017;-64
2022/05/19 04:12:33;;;;;;;1.38;0.70;;;15.70;99.90;;;;;;5055238;28;20103;-64
2022/05/19 04:14:59;;;;;;;0.68;0.30;;;15.80;99.90;;;;;;5049713;28;20698;-64
2022/05/19 04:17:25;;;;;;;0.35;0.15;;;15.80;99.90;;;;;;5055001;28;20025;-64
2022/05/19 04:19:51;;;;;;;0.28;0.10;;;15.80;99.90;;;;;;5052823;28;20096;-64
2022/05/19 04:22:17;;;;;;;0.40;0.20;;;15.90;99.90;;;;;;5051674;28;20060;-65
2022/05/19 04:24:43;;;;;;;1.05;0.30;;;15.90;99.90;;;;;;5051710;28;20072;-65
2022/05/19 04:27:11;;;;;;;1.27;0.57;;;16.00;99.90;;;;;;5052412;28;20095;-66
2022/05/19 04:29:37;;;;;;;1.20;0.47;;;16.10;99.90;;;;;;5052936;28;20045;-65
2022/05/19 04:32:03;;;;;;;0.60;0.22;;;16.20;99.90;;;;;;5051659;28;20025;-66
2022/05/19 04:34:29;;;;;;;0.45;0.30;;;16.30;99.90;;;;;;5053661;28;20658;-65
2022/05/19 04:36:55;;;;;;;0.40;0.20;;;16.40;99.90;;;;;;5056036;28;20017;-64
2022/05/19 04:39:21;;;;;;;0.52;0.25;;;16.50;99.90;;;;;;5065040;28;20025;-65
2022/05/19 04:41:47;;;;;;;0.32;0.15;;;16.60;99.90;;;;;;5068666;28;20036;-65
2022/05/19 04:44:13;;;;;;;0.35;0.20;;;16.60;99.90;;;;;;5059836;28;20123;-71
2022/05/19 04:46:38;;;;;;;0.50;0.20;;;16.70;99.90;;;;;;5058081;28;20123;-71
2022/05/19 04:49:04;;;;;;;0.60;0.25;;;16.80;99.90;;;;;;5050875;28;20160;-71
2022/05/19 04:51:30;;;;;;;0.30;0.30;;;16.80;99.90;;;;;;5048571;28;20021;-64
2022/05/19 04:53:55;;;;;;;0.70;0.47;;;16.90;99.90;;;;;;5066263;28;20055;-64
2022/05/19 04:56:21;;;;;;;1.10;0.68;;;16.80;99.90;;;;;;5049273;28;20603;-65
2022/05/19 04:58:47;;;;;;;0.38;0.17;;;17.00;99.90;;;;;;5073704;28;20392;-64
2022/05/19 05:01:12;;;;;;;1.90;0.75;;;17.00;99.90;;;;;;5055738;28;20143;-64
2022/05/19 05:03:38;;;;;;;1.65;1.10;;;17.10;99.90;;;;;;5049334;28;20041;-64
2022/05/19 05:06:04;;;;;;;0.50;0.20;;;17.20;99.90;;;;;;5060890;28;20669;-65
2022/05/19 05:08:29;;;;;;;1.35;0.52;;;17.30;99.90;;;;;;5058194;28;20424;-65
2022/05/19 05:10:55;;;;;;;0.82;0.38;;;17.40;99.90;;;;;;5063996;28;20044;-65
2022/05/19 05:13:21;;;;;;;0.28;0.13;;;17.50;99.90;;;;;;5070186;28;20124;-64
2022/05/19 05:15:46;;;;;;;0.10;0.10;;;17.60;99.90;;;;;;5065839;28;20033;-64
2022/05/19 05:18:12;;;;;;;0.70;0.70;;;17.80;99.90;;;;;;5057017;28;20037;-65
2022/05/19 05:20:42;;;;;;;0.95;0.32;;;17.90;99.90;;;;;;5065522;28;20025;-65
2022/05/19 05:23:08;;;;;;;0.28;0.10;;;18.00;99.90;;;;;;5057296;28;20047;-73
2022/05/19 05:25:33;;;;;;;0.63;0.30;;;18.10;99.90;;;;;;5068104;28;20096;-72
2022/05/19 05:27:59;;;;;;;0.82;0.40;;;18.30;99.90;;;;;;5029541;28;20020;-77
2022/05/19 05:30:26;;;;;;;0.63;0.20;;;18.40;99.90;;;;;;5041837;28;20029;-72
2022/05/19 05:32:52;;;;;;;1.15;0.93;;;18.50;99.90;;;;;;5078121;28;20027;-65
2022/05/19 05:35:17;;;;;;;0.50;0.32;;;18.80;99.90;;;;;;5076066;28;20034;-65
2022/05/19 05:37:43;;;;;;;1.05;0.43;;;18.90;99.90;;;;;;5072779;28;20029;-65
2022/05/19 05:40:11;;;;;;;0.20;0.20;;;19.20;99.90;;;;;;5075315;28;20025;-65
2022/05/19 05:42:37;;;;;;;0.13;0.10;;;19.30;99.90;;;;;;5064297;28;20369;-65
2022/05/19 05:45:05;;;;;;;1.83;1.08;;;19.50;99.90;;;;;;5071035;28;20041;-65
2022/05/19 05:47:31;;;;;;;0.95;0.45;;;19.80;99.90;;;;;;5062297;28;20025;-65
2022/05/19 05:49:56;;;;;;;0.95;0.47;;;20.10;99.90;;;;;;5081586;28;20141;-65
2022/05/19 05:52:22;;;;;;;1.25;0.80;;;20.30;99.90;;;;;;5066740;28;20028;-65
2022/05/19 05:54:48;;;;;;;0.25;0.25;;;20.40;99.90;;;;;;5073283;28;20120;-64
2022/05/19 05:57:14;;;;;;;0.70;0.45;;;20.50;99.90;;;;;;5069960;28;20071;-65
2022/05/19 05:59:41;;;;;;;0.68;0.55;;;20.50;99.90;;;;;;5064442;28;20040;-65
2022/05/19 06:02:07;;;;;;;1.27;0.82;;;20.40;99.90;;;;;;5072435;28;20056;-65
2022/05/19 06:04:33;;;;;;;0.47;0.20;;;20.40;99.90;;;;;;5072284;28;20139;-65
2022/05/19 06:06:59;;;;;;;0.43;0.20;;;20.40;99.90;;;;;;5063189;28;20123;-65
2022/05/19 06:09:24;;;;;;;0.30;0.10;;;20.40;99.90;;;;;;5060500;28;20025;-65
2022/05/19 06:11:51;;;;;;;0.52;0.20;;;20.60;99.90;;;;;;5059780;28;20028;-65
2022/05/19 06:14:17;;;;;;;0.30;0.10;;;20.70;99.90;;;;;;5058669;28;20476;-65
2022/05/19 06:16:43;;;;;;;0.32;0.22;;;20.80;99.90;;;;;;5057777;28;20060;-66
2022/05/19 06:19:09;;;;;;;1.02;0.50;;;20.80;99.90;;;;;;5046225;28;20025;-64
2022/05/19 06:21:36;;;;;;;0.75;0.35;;;20.80;99.90;;;;;;5060993;28;20041;-65
2022/05/19 06:24:08;;;;;;;0.10;0.10;;;21.10;99.90;;;;;;5059707;28;20033;-65
2022/05/19 06:26:34;;;;;;;0.55;0.20;;;21.50;99.90;;;;;;5059842;28;20040;-65
2022/05/19 06:29:00;;;;;;;0.38;0.10;;;22.00;99.90;;;;;;5057310;28;20036;-65
2022/05/19 06:31:26;;;;;;;0.10;0.10;;;22.30;99.90;;;;;;5055990;28;20029;-65
2022/05/19 06:33:51;;;;;;;0.10;0.10;;;22.90;99.90;;;;;;5059097;28;20037;-66
2022/05/19 06:36:17;;;;;;;0.10;0.10;;;23.10;99.90;;;;;;5058160;28;20088;-66
2022/05/19 06:38:43;;;;;;;0.50;0.50;;;22.90;99.90;;;;;;5057442;28;20029;-66
2022/05/19 06:43:53;;;;;;;0.10;0.10;;;23.10;99.90;;;;;;5060039;28;20056;-65
2022/05/19 06:46:19;;;;;;;0.10;0.10;;;22.90;99.90;;;;;;5050531;28;20049;-66
2022/05/19 06:48:45;;;;;;;0.10;0.10;;;22.70;99.90;;;;;;5058183;28;20132;-66
2022/05/19 06:51:11;;;;;;;0.15;0.15;;;22.70;99.90;;;;;;5071661;28;20032;-67
2022/05/19 06:53:37;;;;;;;0.17;0.10;;;22.40;99.90;;;;;;5083238;28;20151;-67
2022/05/19 06:56:03;;;;;;;0.32;0.15;;;22.00;99.90;;;;;;5078084;28;20037;-67
2022/05/19 06:58:28;;;;;;;0.05;0.05;;;21.90;99.90;;;;;;5062022;28;20036;-67
2022/05/19 07:00:54;;;;;;;0.17;0.10;;;21.70;99.90;;;;;;5066420;28;20032;-66
2022/05/19 07:03:20;;;;;;;0.10;0.10;;;21.50;99.90;;;;;;5044962;28;20418;-66
2022/05/19 07:05:45;;;;;;;0.17;0.10;;;21.50;99.90;;;;;;5060902;28;20544;-66
2022/05/19 07:08:13;;;;;;;0.00;0.00;;;21.30;99.90;;;;;;5063360;28;20151;-66
2022/05/19 07:10:38;;;;;;;0.08;0.08;;;21.20;99.90;;;;;;5053394;28;20021;-66
2022/05/19 07:13:04;;;;;;;0.00;0.00;;;21.10;99.90;;;;;;5063873;28;20028;-65
2022/05/19 07:15:32;;;;;;;0.10;0.10;;;21.00;99.90;;;;;;5076879;28;20025;-65
2022/05/19 07:17:57;;;;;;;0.10;0.10;;;21.00;99.90;;;;;;5076049;28;20032;-65
2022/05/19 07:23:08;;;;;;;0.10;0.10;;;21.10;99.90;;;;;;5047432;28;20055;-64
2022/05/19 07:25:34;;;;;;;0.10;0.10;;;21.00;99.90;;;;;;5058603;28;20052;-66
2022/05/19 07:27:59;;;;;;;0.25;0.10;;;20.90;99.90;;;;;;5066647;28;20024;-64
2022/05/19 07:30:25;;;;;;;0.00;0.00;;;20.80;99.90;;;;;;5070910;28;20051;-65
2022/05/19 07:32:53;;;;;;;0.17;0.10;;;20.80;99.90;;;;;;5058832;28;20021;-65
2022/05/19 07:35:19;;;;;;;0.10;0.10;;;20.70;99.90;;;;;;5068199;28;20032;-64
2022/05/19 07:37:44;;;;;;;0.10;0.10;;;20.40;99.90;;;;;;5066974;28;20055;-64
2022/05/19 07:40:11;;;;;;;0.28;0.20;;;20.10;99.90;;;;;;5074618;28;20056;-67
2022/05/19 07:42:37;;;;;;;0.10;0.10;;;20.20;99.90;;;;;;5068126;28;20051;-65
2022/05/19 07:45:04;;;;;;;0.10;0.10;;;20.10;99.90;;;;;;5060964;28;20033;-65
2022/05/19 07:47:29;;;;;;;0.10;0.10;;;20.00;99.90;;;;;;5060985;28;20109;-66
2022/05/19 07:49:56;;;;;;;0.10;0.10;;;20.10;99.90;;;;;;5060357;28;20037;-66
2022/05/19 07:52:23;;;;;;;0.28;0.10;;;20.10;99.90;;;;;;5061987;28;20032;-66
2022/05/19 07:54:48;;;;;;;0.45;0.45;;;20.20;99.90;;;;;;5063243;28;20031;-66
2022/05/19 07:57:14;;;;;;;0.15;0.10;;;20.10;99.90;;;;;;5094477;28;20029;-66
2022/05/19 07:59:40;;;;;;;0.10;0.10;;;20.20;99.90;;;;;;5047972;28;20029;-67
2022/05/19 08:02:06;;;;;;;0.25;0.10;;;20.20;99.90;;;;;;5061479;28;20103;-65
2022/05/19 08:04:32;;;;;;;0.38;0.20;;;20.10;99.90;;;;;;5063360;28;20053;-66
2022/05/19 08:06:58;;;;;;;0.63;0.32;;;20.00;99.90;;;;;;5061002;28;20088;-66
2022/05/19 08:12:16;;;;;;;0.10;0.10;;;20.00;99.90;;;;;;5060887;28;20090;-66
2022/05/19 08:17:26;;;;;;;0.55;0.30;;;19.90;99.90;;;;;;5062915;28;20166;-66
2022/05/19 08:19:51;;;;;;;0.85;0.40;;;19.90;99.90;;;;;;5067769;28;20034;-66
2022/05/19 08:22:17;;;;;;;0.10;0.10;;;19.90;99.90;;;;;;5042357;28;20021;-67
2022/05/19 08:24:49;;;;;;;0.40;0.20;;;20.00;99.90;;;;;;5060278;28;20109;-66
2022/05/19 08:27:15;;;;;;;0.10;0.10;;;20.10;99.90;;;;;;5061831;28;20517;-66
2022/05/19 08:29:40;;;;;;;0.10;0.10;;;20.20;99.90;;;;;;5061774;28;20044;-65
2022/05/19 08:32:06;;;;;;;0.30;0.20;;;20.30;99.90;;;;;;5059263;28;20371;-66
2022/05/19 08:34:32;;;;;;;0.82;0.52;;;20.50;99.90;;;;;;5058149;28;20077;-66
2022/05/19 08:36:57;;;;;;;0.25;0.17;;;20.40;99.90;;;;;;5058672;28;20029;-67
2022/05/19 08:39:25;;;;;;;0.30;0.20;;;20.50;99.90;;;;;;5061957;28;20044;-66
2022/05/19 08:41:58;;;;;;;0.10;0.10;;;20.60;99.90;;;;;;5059672;28;20082;-66
2022/05/19 08:44:31;;;;;;;0.20;0.10;;;20.80;99.90;;;;;;5041633;28;20041;-66
2022/05/19 08:47:01;;;;;;;0.30;0.20;;;20.90;99.90;;;;;;5060752;28;20025;-66
2022/05/19 08:49:35;;;;;;;0.30;0.30;;;21.20;99.90;;;;;;5059929;28;20076;-66
2022/05/19 08:52:08;;;;;;;0.43;0.15;;;21.10;99.90;;;;;;5061707;28;20034;-66
2022/05/19 08:54:36;;;;;;;0.90;0.47;;;21.20;99.90;;;;;;5057928;28;20029;-66
2022/05/19 08:57:18;;;;;;;0.75;0.55;;;21.40;99.90;;;;;;5071356;28;20024;-66
2022/05/19 09:00:02;;;;;;;0.20;0.20;;;21.30;99.90;;;;;;5057766;28;20055;-76
2022/05/19 09:02:52;;;;;;;0.52;0.22;;;21.60;99.90;;;;;;5072095;28;20029;-76
2022/05/19 09:05:18;;;;;;;0.17;0.10;;;21.80;99.90;;;;;;5082572;28;20447;-77
2022/05/19 09:08:00;;;;;;;0.03;0.03;;;22.40;99.90;;;;;;5059118;28;20017;-78
2022/05/19 09:10:44;;;;;;;0.10;0.10;;;22.80;99.90;;;;;;5058326;28;20040;-77
2022/05/19 09:13:38;;;;;;;1.75;0.73;;;23.00;99.90;;;;;;5059887;28;20025;-79
2022/05/19 09:16:20;;;;;;;0.38;0.17;;;22.70;99.90;;;;;;5058424;28;20037;-78
2022/05/19 09:19:06;;;;;;;0.35;0.30;;;22.90;99.90;;;;;;5082650;28;20024;-78
2022/05/19 09:21:33;;;;;;;0.22;0.13;;;23.00;99.90;;;;;;5056526;28;20029;-78
2022/05/19 09:23:59;;;;;;;0.13;0.08;;;22.80;99.90;;;;;;5040281;28;20051;-82
2022/05/19 09:26:43;;;;;;;0.20;0.15;;;23.00;99.90;;;;;;5060121;28;20111;-82
2022/05/19 09:29:29;;;;;;;0.10;0.10;;;23.20;99.90;;;;;;5054273;28;20025;-80
2022/05/19 09:32:13;;;;;;;0.05;0.03;;;23.50;99.90;;;;;;5085733;28;20028;-78
2022/05/19 09:34:43;;;;;;;0.30;0.15;;;23.90;99.90;;;;;;5068273;28;20041;-82
2022/05/19 09:37:14;;;;;;;0.20;0.10;;;24.20;99.90;;;;;;5053502;28;20017;-82
2022/05/19 09:40:12;;;;;;;0.20;0.10;;;24.70;99.90;;;;;;5054457;28;20082;-82
2022/05/19 09:42:50;;;;;;;0.03;0.03;;;24.80;99.90;;;;;;5046406;28;20037;-81
2022/05/19 09:45:19;;;;;;;0.00;0.00;;;25.00;99.90;;;;;;5052864;28;20091;-82
2022/05/19 09:47:48;;;;;;;0.00;0.00;;;25.00;99.90;;;;;;5055071;28;20341;-81
2022/05/19 09:50:18;;;;;;;0.10;0.10;;;25.70;99.90;;;;;;5070166;28;20025;-81
2022/05/19 09:52:46;;;;;;;0.50;0.20;;;26.00;99.90;;;;;;5067343;28;20027;-81
2022/05/19 09:55:15;;;;;;;0.25;0.10;;;25.80;99.90;;;;;;5056532;28;20024;-81
2022/05/19 09:57:51;;;;;;;0.00;0.00;;;26.00;99.90;;;;;;5049016;28;20020;-81
2022/05/19 10:00:37;;;;;;;0.15;0.15;;;26.10;99.90;;;;;;5070018;28;20025;-82
2022/05/19 10:03:11;;;;;;;0.47;0.20;;;26.80;99.90;;;;;;5056150;28;20110;-81
2022/05/19 10:05:49;;;;;;;0.00;0.00;;;27.50;99.90;;;;;;5054212;28;20118;-82
2022/05/19 10:08:24;;;;;;;0.20;0.10;;;26.80;99.90;;;;;;5053574;28;20025;-81
2022/05/19 10:11:00;;;;;;;0.00;0.00;;;26.70;99.90;;;;;;5053666;28;20041;-81
2022/05/19 10:13:56;;;;;;;0.00;0.00;;;26.70;99.90;;;;;;5054904;28;20025;-75
2022/05/19 10:16:46;;;;;;;0.00;0.00;;;26.40;99.90;;;;;;5052413;28;20041;-75
2022/05/19 10:19:46;;;;;;;0.00;0.00;;;26.00;99.90;;;;;;5066589;28;20021;-75
2022/05/19 10:22:34;;;;;;;0.00;0.00;;;26.00;99.90;;;;;;5051626;28;20492;-75
2022/05/19 10:25:11;;;;;;;0.22;0.20;;;26.10;99.90;;;;;;5056192;28;20056;-74
2022/05/19 10:31:24;;;;;;;0.10;0.10;;;26.90;99.90;;;;;;5057293;28;20132;-75
2022/05/19 10:34:32;;;;;;;0.00;0.00;;;26.90;99.90;;;;;;5060522;28;20037;-75
2022/05/19 10:37:16;;;;;;;0.17;0.10;;;27.40;99.90;;;;;;5073668;28;20028;-74
2022/05/19 10:39:50;;;;;;;0.00;0.00;;;28.70;99.90;;;;;;5055235;28;20112;-75
2022/05/19 10:42:38;;;;;;;0.00;0.00;;;29.80;99.90;;;;;;5061438;28;20123;-75
2022/05/19 10:45:36;;;;;;;0.28;0.10;;;28.90;99.90;;;;;;5060039;28;20029;-75
2022/05/19 10:48:40;;;;;;;0.08;0.08;;;29.40;99.60;;;;;;5055516;28;20037;-75
2022/05/19 10:51:11;;;;;;;0.08;0.00;;;28.70;99.90;;;;;;5057423;28;20021;-75
2022/05/19 10:53:59;;;;;;;0.05;0.05;;;29.10;99.20;;;;;;5056608;28;20085;-75
2022/05/19 10:56:44;;;;;;;0.00;0.00;;;29.20;99.80;;;;;;5070685;28;20025;-75
2022/05/19 10:59:27;;;;;;;0.00;0.00;;;29.90;98.00;;;;;;5057115;28;20362;-76
2022/05/19 11:02:21;;;;;;;0.00;0.00;;;28.80;92.00;;;;;;5073109;28;20036;-78
2022/05/19 11:04:59;;;;;;;0.25;0.10;;;29.20;99.90;;;;;;5057284;28;20053;-78
2022/05/19 11:07:41;;;;;;;0.22;0.10;;;29.70;99.90;;;;;;5059585;28;20032;-78
2022/05/19 11:10:12;;;;;;;0.00;0.00;;;30.80;92.80;;;;;;5053664;28;20177;-77
2022/05/19 11:12:53;;;;;;;0.17;0.10;;;30.50;96.30;;;;;;5056724;28;20029;-77
2022/05/19 11:15:25;;;;;;;;;;;31.60;86.80;;;;;;5057393;28;20070;-75
2022/05/19 11:18:12;;;;;;;0.40;0.20;;;31.50;76.30;;;;;;5057531;28;19916;-75
2022/05/19 11:20:57;;;;;;;0.17;0.10;;;31.90;71.60;;;;;;5085125;28;20025;-75
2022/05/19 11:23:28;;;;;;;0.20;0.10;;;31.10;64.40;;;;;;5061851;28;20028;-75
2022/05/19 11:26:27;;;;;;;0.00;0.00;;;31.10;68.40;;;;;;5061308;28;20040;-75
2022/05/19 11:29:05;;;;;;;0.10;0.03;;;30.50;66.30;;;;;;5061053;28;20028;-74
2022/05/19 11:31:37;;;;;;;0.10;0.10;;;31.20;67.80;;;;;;5055656;28;20763;-75
2022/05/19 11:34:19;;;;;;;0.00;0.00;;;31.40;63.20;;;;;;5062435;28;20044;-74
2022/05/19 11:36:54;;;;;;;0.00;0.00;;;31.30;58.70;;;;;;5060498;28;20067;-74
2022/05/19 11:39:34;;;;;;;0.00;0.00;;;31.70;62.10;;;;;;5063208;28;20029;-74
2022/05/19 11:42:28;;;;;;;0.20;0.10;;;31.70;59.40;;;;;;5061666;28;20361;-75
2022/05/19 11:44:54;;;;;;;0.90;0.35;;;32.50;59.40;;;;;;5062743;28;20048;-74
2022/05/19 11:56:44;;;;;;;0.00;0.00;;;30.40;56.50;;;;;;5063136;28;20040;-74
2022/05/19 11:59:10;;;;;;;0.10;0.10;;;30.40;55.10;;;;;;5062029;28;20033;-74
2022/05/19 12:01:46;;;;;;;0.00;0.00;;;30.40;57.80;;;;;;5052074;28;20063;-75
2022/05/19 12:04:27;;;;;;;0.10;0.10;;;30.10;59.70;;;;;;5047700;28;20044;-74
2022/05/19 12:07:07;;;;;;;0.03;0.03;;;30.00;56.70;;;;;;5051461;28;20052;-75
2022/05/19 12:09:53;;;;;;;0.00;0.00;;;29.80;59.60;;;;;;5057220;28;20040;-74
2022/05/19 12:12:30;;;;;;;0.08;0.08;;;29.30;57.70;;;;;;5060760;28;20174;-74
2022/05/19 12:15:05;;;;;;;0.35;0.10;;;29.30;57.80;;;;;;5060150;28;20100;-74
2022/05/19 12:17:38;;;;;;;0.05;0.05;;;28.90;56.60;;;;;;5061039;28;20017;-74
2022/05/19 12:20:30;;;;;;;0.20;0.10;;;28.70;57.10;;;;;;5056467;28;20033;-74
2022/05/19 12:23:18;;;;;;;0.00;0.00;;;28.60;60.10;;;;;;5061643;28;20040;-74
2022/05/19 12:25:47;;;;;;;0.10;0.10;;;28.20;59.50;;;;;;5061408;28;20074;-74
2022/05/19 12:28:12;;;;;;;0.03;0.03;;;28.00;61.50;;;;;;5059620;28;20013;-74
2022/05/19 12:33:36;;;;;;;0.00;0.00;;;27.50;64.30;;;;;;5054750;28;20095;-74
2022/05/19 12:36:09;;;;;;;0.00;0.00;;;27.30;73.20;;;;;;5071228;28;20025;-74
2022/05/19 12:38:46;;;;;;;0.00;0.00;;;27.00;81.80;;;;;;5042877;28;20359;-74
2022/05/19 12:41:23;;;;;;;0.00;0.00;;;26.70;94.40;;;;;;5041603;28;20026;-74
2022/05/19 12:43:51;;;;;;;0.00;0.00;;;26.50;99.90;;;;;;5057325;28;20034;-72
2022/05/19 12:46:38;;;;;;;0.00;0.00;;;26.10;99.90;;;;;;5060253;28;20029;-71
2022/05/19 12:49:25;;;;;;;0.00;0.00;;;25.80;99.90;;;;;;5060205;28;20121;-72
2022/05/19 12:52:02;;;;;;;0.00;0.00;;;25.50;99.90;;;;;;5091551;28;20017;-71
2022/05/19 12:54:31;;;;;;;0.00;0.00;;;25.10;99.90;;;;;;5040652;28;20049;-72
2022/05/19 12:57:07;;;;;;;0.00;0.00;;;24.70;99.90;;;;;;5051052;28;20024;-71
2022/05/19 13:00:01;;;;;;;0.00;0.00;;;24.50;99.90;;;;;;5061330;28;20108;-71
2022/05/19 13:02:50;;;;;;;0.00;0.00;;;24.20;99.90;;;;;;5044474;28;20643;-70
2022/05/19 13:05:50;;;;;;;0.00;0.00;;;23.90;99.90;;;;;;5080692;28;20128;-70
2022/05/19 13:08:31;;;;;;;0.00;0.00;;;23.60;99.90;;;;;;5054514;28;20071;-65
2022/05/19 13:10:59;;;;;;;;;;;23.30;99.90;;;;;;5054797;28;20032;-66
2022/05/19 13:13:42;;;;;;;0.40;0.35;;;23.00;99.90;;;;;;5057607;28;19920;-77
2022/05/19 13:16:19;;;;;;;0.30;0.15;;;22.80;99.90;;;;;;5047117;28;20032;-79
2022/05/19 13:18:52;;;;;;;0.00;0.00;;;22.40;99.90;;;;;;5074326;28;20086;-80
2022/05/19 13:21:26;;;;;;;0.08;0.00;;;22.10;99.90;;;;;;5078527;28;20024;-77
2022/05/19 13:23:52;;;;;;;0.32;0.20;;;21.70;99.90;;;;;;5053590;28;20024;-78
2022/05/19 13:26:30;;;;;;;0.20;0.10;;;21.30;99.90;;;;;;5039013;28;20040;-76
2022/05/19 13:32:14;;;;;;;3.35;0.20;;;20.80;99.90;;;;;;5055370;28;20095;-73
2022/05/19 13:34:44;;;;;;;0.30;0.30;;;20.40;99.90;;;;;;5054958;28;20140;-72
2022/05/19 13:37:10;;;;;;;0.00;0.00;;;20.20;99.90;;;;;;5056755;28;21857;-71
2022/05/19 13:39:36;;;;;;;0.00;0.00;;;20.10;99.90;;;;;;5056705;28;20053;-72
2022/05/19 13:42:12;;;;;;;0.00;0.00;;;20.00;99.90;;;;;;5054509;28;20028;-73
2022/05/19 13:44:47;;;;;;;0.10;0.10;;;19.80;99.90;;;;;;5047285;28;20032;-74
2022/05/19 13:47:22;;;;;;;0.05;0.05;;;19.70;99.90;;;;;;5056196;28;20021;-73